Time;durP1;ratioP1;P1;durP2;ratioP2;P2;SDS_P1;SDS_P2;PMS_P1;PMS_P2;Temp;Humidity;BMP_temperature;BMP_pressure;BME280_temperature;BME280_humidity;BME280_pressure;Samples;Min_cycle;Max_cycle;Signal;HPM_P1;HPM_P2
2022/01/17 00:00:36;;;;;;;10.43;1.10;;;5.80;99.90;;;;;;5092917;28;20044;-86
2022/01/17 00:03:02;;;;;;;12.60;1.60;;;6.10;99.90;;;;;;5092483;28;20050;-87
2022/01/17 00:05:28;;;;;;;14.32;1.98;;;6.00;99.90;;;;;;5092658;28;20032;-86
2022/01/17 00:07:54;;;;;;;7.35;1.00;;;5.60;99.90;;;;;;5092685;28;20119;-86
2022/01/17 00:10:20;;;;;;;10.68;0.90;;;5.60;99.90;;;;;;5092388;28;20138;-86
2022/01/17 00:12:47;;;;;;;12.68;2.03;;;6.20;99.90;;;;;;5071209;28;20053;-87
2022/01/17 00:15:25;;;;;;;11.20;1.00;;;6.00;99.90;;;;;;5089490;28;20059;-84
2022/01/17 00:18:08;;;;;;;5.65;0.70;;;5.60;99.90;;;;;;5092500;28;20108;-86
2022/01/17 00:20:34;;;;;;;6.15;0.80;;;5.50;99.90;;;;;;5075479;28;20069;-86
2022/01/17 00:22:59;;;;;;;8.77;1.00;;;6.20;99.90;;;;;;5058836;28;20066;-86
2022/01/17 00:25:25;;;;;;;5.90;0.65;;;5.50;99.90;;;;;;5092378;28;20044;-87
2022/01/17 00:27:51;;;;;;;11.32;1.20;;;5.70;99.90;;;;;;5075565;28;20039;-86
2022/01/17 00:30:17;;;;;;;8.20;1.10;;;5.40;99.90;;;;;;5075283;28;20097;-84
2022/01/17 00:32:43;;;;;;;6.18;0.70;;;5.50;99.90;;;;;;5074013;28;20043;-86
2022/01/17 00:35:09;;;;;;;6.30;0.60;;;6.20;99.90;;;;;;5092287;28;20044;-85
2022/01/17 00:37:34;;;;;;;9.13;1.10;;;5.40;99.90;;;;;;5092020;28;20052;-86
2022/01/17 00:40:00;;;;;;;7.45;0.80;;;5.50;99.90;;;;;;5092247;28;20043;-86
2022/01/17 00:42:25;;;;;;;6.80;0.90;;;6.00;99.90;;;;;;5091867;28;20043;-85
2022/01/17 00:44:51;;;;;;;3.90;0.82;;;5.60;99.90;;;;;;5092476;28;20040;-84
2022/01/17 00:47:17;;;;;;;5.72;0.70;;;5.90;99.90;;;;;;5073759;28;20036;-85
2022/01/17 00:49:43;;;;;;;3.65;0.60;;;5.20;99.90;;;;;;5092088;28;20048;-84
2022/01/17 00:52:08;;;;;;;7.97;0.65;;;5.20;99.90;;;;;;5094239;28;20054;-86
2022/01/17 00:54:34;;;;;;;12.80;1.98;;;5.20;99.90;;;;;;5096141;28;20036;-83
2022/01/17 00:57:00;;;;;;;13.13;1.10;;;5.70;99.90;;;;;;5096270;28;20028;-85
2022/01/17 00:59:25;;;;;;;6.75;0.98;;;5.20;99.90;;;;;;5095935;28;20040;-84
2022/01/17 01:01:51;;;;;;;10.25;1.27;;;5.80;99.90;;;;;;5095018;28;20036;-82
2022/01/17 01:04:17;;;;;;;10.25;0.77;;;5.30;99.90;;;;;;5095828;28;20032;-85
2022/01/17 01:06:43;;;;;;;9.10;0.90;;;4.90;99.90;;;;;;5095889;28;20064;-85
2022/01/17 01:09:08;;;;;;;12.30;1.73;;;5.20;99.90;;;;;;5095810;28;20621;-85
2022/01/17 01:11:34;;;;;;;6.82;0.95;;;5.70;99.90;;;;;;5077516;28;20477;-85
2022/01/17 01:14:00;;;;;;;12.25;1.30;;;5.80;99.90;;;;;;5095940;28;20047;-85
2022/01/17 01:16:34;;;;;;;5.88;0.60;;;5.20;99.90;;;;;;5096152;28;20077;-87
2022/01/17 01:29:29;;;;;;;9.50;0.80;;;5.30;99.90;;;;;;5095793;28;20055;-86
2022/01/17 01:32:05;;;;;;;6.05;1.10;;;5.10;99.90;;;;;;5095671;28;20028;-86
2022/01/17 01:34:38;;;;;;;8.18;0.65;;;5.20;99.90;;;;;;5095197;28;20040;-86
2022/01/17 01:37:04;;;;;;;8.02;1.25;;;5.10;99.90;;;;;;5094792;28;20136;-86
2022/01/17 01:39:31;;;;;;;5.57;0.68;;;5.10;99.90;;;;;;5095406;28;20128;-86
2022/01/17 01:41:58;;;;;;;4.35;0.68;;;5.10;99.90;;;;;;5095114;28;20044;-87
2022/01/17 01:44:27;;;;;;;8.48;1.10;;;5.70;99.90;;;;;;5095059;28;20044;-86
2022/01/17 01:46:55;;;;;;;14.27;1.10;;;5.00;99.90;;;;;;5073704;28;20055;-85
2022/01/17 01:49:21;;;;;;;10.68;1.17;;;5.10;99.90;;;;;;5092787;28;20114;-85
2022/01/17 01:51:48;;;;;;;7.72;0.80;;;5.10;99.90;;;;;;5094538;28;20068;-84
2022/01/17 01:54:14;;;;;;;9.85;1.27;;;5.50;99.90;;;;;;5094913;28;20044;-86
2022/01/17 01:56:43;;;;;;;12.23;0.95;;;5.10;99.90;;;;;;5094226;28;20139;-85
2022/01/17 01:59:10;;;;;;;7.45;1.08;;;5.60;99.90;;;;;;5073369;28;20044;-84
2022/01/17 02:01:36;;;;;;;11.73;0.75;;;5.30;99.90;;;;;;5093214;28;20051;-87
2022/01/17 02:04:03;;;;;;;8.32;0.95;;;5.00;99.90;;;;;;5094302;28;20051;-85
2022/01/17 02:06:32;;;;;;;8.57;1.02;;;5.00;99.90;;;;;;5095211;28;20040;-85
2022/01/17 02:08:58;;;;;;;7.82;1.33;;;5.10;99.90;;;;;;5087060;28;20036;-85
2022/01/17 02:11:25;;;;;;;8.02;1.95;;;4.80;99.90;;;;;;5059797;28;20114;-87
2022/01/17 02:13:51;;;;;;;13.60;0.93;;;5.40;99.90;;;;;;5093564;28;20043;-86
2022/01/17 02:16:16;;;;;;;8.20;1.20;;;5.50;99.90;;;;;;5094644;28;20039;-86
2022/01/17 02:18:44;;;;;;;10.15;1.10;;;5.90;99.90;;;;;;5094405;28;20434;-84
2022/01/17 02:23:45;;;;;;;11.02;1.13;;;5.20;99.90;;;;;;5094538;28;20165;-86
2022/01/17 02:26:11;;;;;;;8.73;1.10;;;4.90;99.90;;;;;;5094415;28;20040;-86
2022/01/17 02:28:37;;;;;;;6.22;0.90;;;5.60;99.90;;;;;;5093941;28;20548;-87
2022/01/17 02:31:05;;;;;;;7.90;0.90;;;5.70;99.90;;;;;;5076048;28;20131;-85
2022/01/17 02:33:32;;;;;;;12.25;0.95;;;4.90;99.90;;;;;;5094180;28;20052;-86
2022/01/17 02:35:59;;;;;;;8.00;0.88;;;5.10;99.90;;;;;;5094298;28;20106;-87
2022/01/17 02:38:24;;;;;;;9.60;1.67;;;5.30;99.90;;;;;;5086113;28;20048;-86
2022/01/17 02:40:51;;;;;;;10.38;0.95;;;5.20;99.90;;;;;;5094296;28;20438;-86
2022/01/17 02:43:18;;;;;;;11.02;1.25;;;4.80;99.90;;;;;;5058760;28;20397;-86
2022/01/17 02:48:30;;;;;;;11.03;1.07;;;4.90;99.90;;;;;;5075983;28;20443;-85
2022/01/17 02:50:57;;;;;;;7.97;1.23;;;5.10;99.90;;;;;;5075935;28;20305;-87
2022/01/17 02:53:24;;;;;;;6.03;1.33;;;5.10;99.90;;;;;;5075873;28;20491;-85
2022/01/17 02:55:53;;;;;;;8.55;1.05;;;5.10;99.90;;;;;;5093792;28;20032;-83
2022/01/17 02:58:21;;;;;;;6.20;0.60;;;4.70;99.90;;;;;;5093483;28;20093;-86
2022/01/17 03:00:48;;;;;;;7.07;0.70;;;4.80;99.90;;;;;;5093351;28;20040;-87
2022/01/17 03:03:18;;;;;;;11.57;1.10;;;4.80;99.90;;;;;;5094118;28;20044;-86
2022/01/17 03:05:44;;;;;;;7.78;1.73;;;4.80;99.90;;;;;;5093659;28;20100;-87
2022/01/17 03:08:11;;;;;;;9.48;0.90;;;4.80;99.90;;;;;;5093949;28;20040;-87
2022/01/17 03:13:04;;;;;;;11.88;1.08;;;5.10;99.90;;;;;;5075350;28;20044;-86
2022/01/17 03:15:29;;;;;;;9.35;1.70;;;4.90;99.90;;;;;;5092963;28;20055;-88
2022/01/17 03:17:55;;;;;;;6.18;0.90;;;5.40;99.90;;;;;;5093218;28;20044;-87
2022/01/17 03:20:21;;;;;;;8.55;1.08;;;5.70;99.90;;;;;;5093876;28;20127;-87
2022/01/17 03:22:47;;;;;;;15.50;1.60;;;5.20;99.90;;;;;;5074870;28;20116;-84
2022/01/17 03:25:12;;;;;;;11.60;1.08;;;5.00;99.90;;;;;;5093115;28;20459;-86
2022/01/17 03:27:38;;;;;;;9.70;1.65;;;5.00;99.90;;;;;;5075163;28;20565;-87
2022/01/17 03:30:05;;;;;;;5.88;0.73;;;5.40;99.90;;;;;;5093059;28;20431;-85
2022/01/17 03:32:31;;;;;;;12.95;1.15;;;5.10;99.90;;;;;;5093064;28;20040;-87
2022/01/17 03:34:57;;;;;;;7.80;0.80;;;5.10;99.90;;;;;;5093044;28;20054;-86
2022/01/17 03:37:22;;;;;;;9.15;0.73;;;5.10;99.90;;;;;;5092216;28;20123;-85
2022/01/17 03:39:48;;;;;;;7.28;0.90;;;6.60;99.90;;;;;;5066628;28;20048;-86
2022/01/17 03:42:14;;;;;;;11.45;1.27;;;5.90;99.90;;;;;;5090730;28;20480;-84
2022/01/17 03:44:40;;;;;;;9.68;1.00;;;5.40;99.90;;;;;;5092989;28;20043;-85
2022/01/17 03:47:06;;;;;;;10.57;0.80;;;5.20;99.90;;;;;;5092818;28;20043;-86
2022/01/17 03:49:31;;;;;;;8.45;1.05;;;5.30;99.90;;;;;;5093001;28;20044;-86
2022/01/17 03:51:57;;;;;;;10.73;0.77;;;5.20;99.90;;;;;;5092691;28;20400;-87
2022/01/17 03:54:23;;;;;;;8.95;1.20;;;5.30;99.90;;;;;;5092568;28;20404;-86
2022/01/17 03:56:48;;;;;;;8.43;0.80;;;5.20;99.90;;;;;;5093050;28;20400;-85
2022/01/17 03:59:14;;;;;;;13.68;1.58;;;5.30;99.90;;;;;;5092678;28;20489;-86
2022/01/17 04:01:40;;;;;;;7.68;0.88;;;5.80;99.90;;;;;;5092601;28;20039;-87
2022/01/17 04:04:06;;;;;;;13.65;1.05;;;5.90;99.90;;;;;;5092826;28;20048;-86
2022/01/17 04:06:33;;;;;;;11.68;1.48;;;5.40;99.90;;;;;;5057582;28;20124;-86
2022/01/17 04:08:59;;;;;;;7.05;0.88;;;5.50;99.90;;;;;;5094644;28;20054;-86
2022/01/17 04:11:24;;;;;;;15.07;1.17;;;6.00;99.90;;;;;;5076890;28;20036;-85
2022/01/17 04:13:50;;;;;;;15.18;1.60;;;5.40;99.90;;;;;;5074111;28;20083;-86
2022/01/17 04:16:16;;;;;;;15.10;1.13;;;5.90;99.90;;;;;;5093011;28;20111;-84
2022/01/17 04:18:42;;;;;;;5.38;0.70;;;5.40;99.90;;;;;;5076534;28;20051;-85
2022/01/17 04:21:08;;;;;;;10.20;1.23;;;5.30;99.90;;;;;;5068432;28;20044;-84
2022/01/17 04:23:34;;;;;;;10.70;1.77;;;5.40;99.90;;;;;;5092508;28;20405;-82
2022/01/17 04:26:00;;;;;;;15.43;1.15;;;5.40;99.90;;;;;;5091879;28;20044;-86
2022/01/17 04:28:26;;;;;;;13.07;1.65;;;5.60;99.90;;;;;;5074602;28;20381;-83
2022/01/17 04:30:51;;;;;;;11.77;1.20;;;5.50;99.90;;;;;;5091615;28;20086;-84
2022/01/17 04:33:17;;;;;;;11.65;1.13;;;5.40;99.90;;;;;;5092141;28;20036;-85
2022/01/17 04:35:44;;;;;;;15.15;1.45;;;5.50;99.90;;;;;;5092342;28;20408;-83
2022/01/17 04:38:17;;;;;;;9.10;1.10;;;5.60;99.90;;;;;;5073791;28;20166;-85
2022/01/17 04:40:45;;;;;;;12.65;1.30;;;5.50;99.90;;;;;;5073625;28;20488;-86
2022/01/17 04:43:18;;;;;;;8.27;1.33;;;5.60;99.90;;;;;;5074139;28;20412;-87
2022/01/17 04:45:46;;;;;;;7.30;0.90;;;5.70;99.90;;;;;;5074082;28;20093;-85
2022/01/17 04:48:12;;;;;;;9.13;0.80;;;5.70;99.90;;;;;;5073950;28;20048;-84
2022/01/17 04:50:37;;;;;;;4.05;0.93;;;5.60;99.90;;;;;;5074241;28;20499;-87
2022/01/17 04:53:03;;;;;;;13.90;1.70;;;5.60;99.90;;;;;;5074052;28;20063;-84
2022/01/17 04:55:30;;;;;;;10.02;1.38;;;6.20;99.90;;;;;;5091835;28;20433;-85
2022/01/17 04:57:58;;;;;;;7.07;0.80;;;5.80;99.90;;;;;;5092108;28;20093;-87
2022/01/17 05:00:26;;;;;;;10.65;1.90;;;5.70;99.90;;;;;;5073819;28;20090;-84
2022/01/17 05:02:52;;;;;;;4.82;1.20;;;5.80;99.90;;;;;;5092304;28;20067;-87
2022/01/17 05:05:18;;;;;;;12.88;1.52;;;6.60;99.90;;;;;;5057398;28;20063;-87
2022/01/17 05:07:44;;;;;;;9.75;1.10;;;5.70;99.90;;;;;;5091839;28;20048;-86
2022/01/17 05:10:13;;;;;;;12.68;1.42;;;5.80;99.90;;;;;;5091772;28;20400;-86
2022/01/17 05:12:39;;;;;;;12.75;1.48;;;5.80;99.90;;;;;;5091454;28;20499;-87
2022/01/17 05:15:11;;;;;;;11.48;1.52;;;5.80;99.90;;;;;;5073936;28;20050;-87
2022/01/17 05:17:44;;;;;;;13.63;1.70;;;5.80;99.90;;;;;;5070649;28;20037;-87
2022/01/17 05:20:11;;;;;;;7.43;1.10;;;5.90;99.90;;;;;;5072503;28;20420;-86
2022/01/17 05:22:38;;;;;;;6.95;2.55;;;5.80;99.90;;;;;;5092052;28;20117;-86
2022/01/17 05:25:07;;;;;;;10.43;1.67;;;6.40;99.90;;;;;;5091050;28;20062;-86
2022/01/17 05:27:34;;;;;;;13.02;2.55;;;5.90;99.90;;;;;;5091852;28;20377;-85
2022/01/17 05:30:01;;;;;;;8.48;1.40;;;5.90;99.90;;;;;;5091231;28;20040;-87
2022/01/17 05:32:26;;;;;;;5.97;1.45;;;6.20;99.90;;;;;;5091702;28;20043;-86
2022/01/17 05:34:52;;;;;;;15.07;2.95;;;5.90;99.90;;;;;;5091472;28;20040;-86
2022/01/17 05:37:17;;;;;;;16.27;1.95;;;5.90;99.90;;;;;;5092236;28;20052;-85
2022/01/17 05:39:43;;;;;;;11.43;1.33;;;6.00;99.90;;;;;;5094700;28;20040;-85
2022/01/17 05:42:14;;;;;;;9.63;1.50;;;6.30;99.90;;;;;;5094920;28;20473;-86
2022/01/17 05:44:40;;;;;;;13.65;2.17;;;6.40;99.90;;;;;;5095236;28;20040;-85
2022/01/17 05:47:06;;;;;;;10.05;2.28;;;6.70;99.90;;;;;;5095299;28;20036;-86
2022/01/17 05:49:32;;;;;;;10.75;1.33;;;6.10;99.90;;;;;;5095250;28;20040;-86
2022/01/17 05:51:58;;;;;;;8.68;1.75;;;6.10;99.90;;;;;;5095187;28;20097;-86
2022/01/17 05:54:23;;;;;;;18.55;2.15;;;6.20;99.90;;;;;;5076156;28;20051;-86
2022/01/17 05:56:49;;;;;;;13.30;3.05;;;6.20;99.90;;;;;;5095083;28;20078;-87
2022/01/17 05:59:15;;;;;;;13.10;1.88;;;6.20;99.90;;;;;;5094831;28;20462;-86
2022/01/17 06:01:42;;;;;;;28.88;2.70;;;6.40;99.90;;;;;;5095210;28;20141;-87
2022/01/17 06:04:09;;;;;;;11.23;1.58;;;6.20;99.90;;;;;;5094868;28;20565;-86
2022/01/17 06:06:35;;;;;;;14.15;1.88;;;6.60;99.90;;;;;;5076381;28;20062;-86
2022/01/17 06:09:00;;;;;;;10.63;2.13;;;7.10;99.90;;;;;;5094661;28;20052;-87
2022/01/17 06:11:26;;;;;;;14.30;1.92;;;6.10;99.90;;;;;;5094423;28;20036;-85
2022/01/17 06:13:51;;;;;;;19.70;2.17;;;6.10;99.90;;;;;;5087935;28;20093;-87
2022/01/17 06:16:17;;;;;;;17.02;2.83;;;6.20;99.90;;;;;;5094549;28;20052;-90
2022/01/17 06:18:43;;;;;;;17.45;1.85;;;6.40;99.90;;;;;;5094476;28;20106;-85
2022/01/17 06:21:09;;;;;;;8.68;1.58;;;6.30;99.90;;;;;;5094681;28;20036;-86
2022/01/17 06:23:35;;;;;;;19.20;2.95;;;6.20;99.90;;;;;;5076589;28;20119;-85
2022/01/17 06:26:00;;;;;;;12.30;1.88;;;6.20;99.90;;;;;;5076682;28;20043;-85
2022/01/17 06:28:26;;;;;;;9.30;1.48;;;6.10;99.90;;;;;;5094006;28;20550;-86
2022/01/17 06:30:52;;;;;;;11.27;1.83;;;6.10;99.90;;;;;;5094035;28;20916;-84
2022/01/17 06:33:18;;;;;;;18.63;2.22;;;6.30;99.90;;;;;;5094642;28;20055;-85
2022/01/17 06:35:43;;;;;;;13.57;1.88;;;6.30;99.90;;;;;;5093812;28;20401;-85
2022/01/17 06:38:09;;;;;;;20.92;3.38;;;6.30;99.90;;;;;;5076143;28;20040;-86
2022/01/17 06:40:35;;;;;;;17.63;2.30;;;6.30;99.90;;;;;;5093752;28;20622;-87
2022/01/17 06:43:00;;;;;;;17.67;2.42;;;6.50;99.90;;;;;;5075774;28;20051;-83
2022/01/17 06:45:26;;;;;;;15.52;2.03;;;6.50;99.90;;;;;;5071497;28;20072;-85
2022/01/17 06:47:52;;;;;;;11.82;1.70;;;6.20;99.90;;;;;;5074363;28;20047;-85
2022/01/17 06:50:18;;;;;;;14.68;2.47;;;6.20;99.90;;;;;;5093043;28;20043;-85
2022/01/17 06:52:45;;;;;;;19.08;2.13;;;6.20;99.90;;;;;;5075632;28;20044;-86
2022/01/17 06:55:11;;;;;;;19.02;3.17;;;6.40;99.90;;;;;;5094126;28;20105;-85
2022/01/17 06:57:37;;;;;;;18.15;2.45;;;6.30;99.90;;;;;;5093945;28;20443;-85
2022/01/17 07:00:06;;;;;;;21.02;2.00;;;7.10;99.90;;;;;;5085344;28;20411;-85
2022/01/17 07:02:32;;;;;;;19.65;2.50;;;6.40;99.90;;;;;;5092913;28;20036;-86
2022/01/17 07:04:58;;;;;;;22.55;1.90;;;6.50;99.90;;;;;;5075435;28;20082;-85
2022/01/17 07:07:24;;;;;;;16.77;2.53;;;7.30;99.90;;;;;;5093779;28;20048;-84
2022/01/17 07:09:49;;;;;;;14.52;2.25;;;7.30;99.90;;;;;;5093038;28;20036;-85
2022/01/17 07:12:15;;;;;;;22.10;2.35;;;6.60;99.90;;;;;;5093688;28;20465;-85
2022/01/17 07:14:42;;;;;;;17.58;2.28;;;6.50;99.90;;;;;;5075723;28;20543;-86
2022/01/17 07:17:11;;;;;;;23.58;2.80;;;6.50;99.90;;;;;;5075256;28;20101;-87
2022/01/17 07:19:38;;;;;;;25.23;3.78;;;7.10;99.90;;;;;;5093376;28;20067;-86
2022/01/17 07:22:07;;;;;;;26.20;2.60;;;6.60;99.90;;;;;;5092889;28;20073;-86
2022/01/17 07:24:33;;;;;;;19.20;2.88;;;6.70;99.90;;;;;;5093453;28;20427;-84
2022/01/17 07:26:59;;;;;;;19.00;2.42;;;7.40;99.90;;;;;;5091873;28;20066;-87
2022/01/17 07:29:26;;;;;;;25.02;2.80;;;6.80;99.90;;;;;;5075259;28;20381;-86
2022/01/17 07:31:53;;;;;;;18.55;2.38;;;6.70;99.90;;;;;;5093154;28;20039;-85
2022/01/17 07:34:19;;;;;;;27.35;2.42;;;6.70;99.90;;;;;;5092970;28;20051;-83
2022/01/17 07:36:45;;;;;;;14.93;2.90;;;7.30;99.90;;;;;;5093004;28;20048;-84
2022/01/17 07:39:11;;;;;;;26.33;3.13;;;6.80;99.90;;;;;;5092474;28;20048;-84
2022/01/17 07:41:40;;;;;;;25.02;2.60;;;6.80;99.90;;;;;;5057628;28;20067;-90
2022/01/17 07:44:08;;;;;;;16.33;2.20;;;6.90;99.90;;;;;;5092938;28;20107;-86
2022/01/17 07:46:37;;;;;;;19.75;2.47;;;6.90;99.90;;;;;;5071301;28;20119;-86
2022/01/17 07:49:16;;;;;;;26.77;2.97;;;7.30;99.90;;;;;;5089378;28;20378;-83
2022/01/17 07:51:44;;;;;;;26.20;3.58;;;7.00;99.90;;;;;;5092939;28;20437;-86
2022/01/17 07:54:11;;;;;;;16.27;2.25;;;7.10;99.90;;;;;;5092542;28;20094;-85
2022/01/17 07:56:40;;;;;;;17.30;2.15;;;7.60;99.90;;;;;;5092124;28;20036;-86
2022/01/17 07:59:07;;;;;;;15.68;2.05;;;6.90;99.90;;;;;;5092742;28;20374;-85
2022/01/17 08:01:33;;;;;;;19.85;2.92;;;7.40;99.90;;;;;;5092870;28;20388;-86
2022/01/17 08:03:59;;;;;;;24.33;3.08;;;7.00;99.90;;;;;;5092187;28;20043;-84
2022/01/17 08:06:25;;;;;;;19.65;3.03;;;7.40;99.90;;;;;;5072830;28;20082;-85
2022/01/17 08:08:50;;;;;;;21.98;2.53;;;8.00;99.90;;;;;;5092770;28;20040;-86
2022/01/17 08:11:18;;;;;;;22.90;1.88;;;7.60;99.90;;;;;;5074235;28;20047;-85
2022/01/17 08:13:43;;;;;;;24.52;2.83;;;7.70;99.90;;;;;;5092392;28;20101;-85
2022/01/17 08:16:09;;;;;;;22.95;2.92;;;7.20;99.90;;;;;;5092608;28;20131;-85
2022/01/17 08:18:35;;;;;;;28.67;3.10;;;7.30;99.90;;;;;;5073386;28;20036;-86
2022/01/17 08:21:03;;;;;;;28.25;2.70;;;7.60;99.90;;;;;;5074359;28;20381;-84
2022/01/17 08:23:29;;;;;;;26.20;3.38;;;8.00;99.90;;;;;;5092413;28;20044;-85
2022/01/17 08:25:55;;;;;;;20.92;2.70;;;8.10;99.90;;;;;;5091614;28;20042;-85
2022/01/17 08:28:20;;;;;;;31.98;3.05;;;8.60;99.90;;;;;;5073882;28;20039;-84
2022/01/17 08:30:46;;;;;;;28.13;2.83;;;6.40;99.90;;;;;;5092406;28;20050;-84
2022/01/17 08:33:12;;;;;;;28.52;3.20;;;7.80;99.90;;;;;;5092370;28;20044;-84
2022/01/17 08:35:37;;;;;;;28.55;3.05;;;8.50;99.90;;;;;;5092121;28;20550;-84
2022/01/17 08:38:03;;;;;;;30.95;3.90;;;7.90;99.90;;;;;;5092234;28;20072;-83
2022/01/17 08:40:29;;;;;;;31.52;3.38;;;8.60;99.90;;;;;;5092128;28;20044;-85
2022/01/17 08:42:55;;;;;;;28.08;2.97;;;8.30;99.90;;;;;;5066223;28;20436;-86
2022/01/17 08:45:23;;;;;;;22.35;3.22;;;8.20;99.90;;;;;;5090442;28;20083;-85
2022/01/17 08:47:51;;;;;;;29.10;3.45;;;8.20;99.90;;;;;;5073964;28;20051;-83
2022/01/17 08:50:22;;;;;;;34.25;3.50;;;8.30;99.90;;;;;;5091693;28;20094;-82
2022/01/17 08:52:48;;;;;;;25.58;3.88;;;8.60;99.90;;;;;;5091672;28;20519;-81
2022/01/17 08:55:16;;;;;;;27.10;3.85;;;8.90;99.90;;;;;;5092031;28;20032;-80
2022/01/17 08:57:42;;;;;;;35.90;4.25;;;8.40;99.90;;;;;;5091799;28;20105;-80
2022/01/17 09:00:12;;;;;;;22.38;3.28;;;8.50;99.90;;;;;;5091315;28;20488;-80
2022/01/17 09:02:39;;;;;;;27.02;3.47;;;8.50;99.90;;;;;;5091877;28;20047;-80
2022/01/17 09:05:05;;;;;;;24.80;4.05;;;8.20;99.90;;;;;;5090941;28;20397;-80
2022/01/17 09:07:30;;;;;;;31.73;3.50;;;8.60;99.90;;;;;;5073743;28;20381;-81
2022/01/17 09:09:56;;;;;;;26.60;2.60;;;9.00;99.90;;;;;;5090802;28;20094;-80
2022/01/17 09:12:22;;;;;;;28.20;3.65;;;8.80;99.90;;;;;;5092358;28;20036;-80
2022/01/17 09:14:47;;;;;;;20.85;3.25;;;9.20;99.90;;;;;;5096060;28;20040;-80
2022/01/17 09:17:13;;;;;;;39.60;4.32;;;8.60;99.90;;;;;;5077329;28;20094;-80
2022/01/17 09:19:40;;;;;;;25.75;2.83;;;8.90;99.90;;;;;;5095658;28;20395;-79
2022/01/17 09:22:07;;;;;;;27.48;2.67;;;8.80;99.90;;;;;;5095420;28;20043;-80
2022/01/17 09:24:34;;;;;;;27.25;4.18;;;8.60;99.90;;;;;;5095762;28;20474;-80
2022/01/17 09:27:01;;;;;;;36.22;3.90;;;9.10;99.90;;;;;;5095536;28;20092;-80
2022/01/17 09:29:27;;;;;;;22.45;3.08;;;9.10;99.90;;;;;;5094730;28;20046;-80
2022/01/17 09:31:52;;;;;;;23.60;4.05;;;9.10;99.90;;;;;;5094753;28;20032;-81
2022/01/17 09:34:18;;;;;;;33.35;3.42;;;8.80;99.90;;;;;;5095476;28;20048;-80
2022/01/17 09:36:44;;;;;;;22.38;3.42;;;8.80;99.90;;;;;;5094184;28;20162;-80
2022/01/17 09:39:10;;;;;;;26.25;3.00;;;8.80;99.90;;;;;;5094943;28;20059;-81
2022/01/17 09:41:36;;;;;;;32.72;5.15;;;9.10;99.90;;;;;;5091469;28;20042;-80
2022/01/17 09:44:04;;;;;;;35.08;4.03;;;8.90;99.90;;;;;;5094876;28;20035;-80
2022/01/17 09:46:36;;;;;;;28.73;3.80;;;8.80;99.90;;;;;;5087338;28;20076;-80
2022/01/17 09:49:14;;;;;;;32.88;4.20;;;9.40;99.90;;;;;;5095188;28;20050;-81
2022/01/17 09:54:25;;;;;;;26.25;3.38;;;9.30;99.90;;;;;;5094554;28;20109;-81
2022/01/17 09:56:53;;;;;;;36.88;4.65;;;9.30;99.90;;;;;;5094219;28;20032;-80
2022/01/17 09:59:19;;;;;;;33.35;4.10;;;9.30;99.90;;;;;;5093856;28;20040;-81
2022/01/17 10:01:44;;;;;;;42.08;4.57;;;9.80;99.90;;;;;;5094604;28;20040;-79
2022/01/17 10:04:10;;;;;;;20.83;4.03;;;9.20;99.90;;;;;;5093776;28;20123;-80
2022/01/17 10:06:39;;;;;;;30.77;5.05;;;9.30;99.90;;;;;;5076500;28;20048;-80
2022/01/17 10:09:12;;;;;;;27.75;3.28;;;9.40;99.90;;;;;;5075533;28;20047;-80
2022/01/17 10:12:01;;;;;;;33.67;4.05;;;9.20;99.90;;;;;;5094728;28;20054;-81
2022/01/17 10:14:29;;;;;;;36.97;5.50;;;9.10;99.90;;;;;;5089286;28;20036;-81
2022/01/17 10:16:55;;;;;;;38.08;4.47;;;9.80;99.90;;;;;;5059532;28;20036;-81
2022/01/17 10:19:26;;;;;;;31.30;3.67;;;9.30;99.90;;;;;;5075833;28;20044;-81
2022/01/17 10:21:56;;;;;;;27.30;4.00;;;9.40;99.90;;;;;;5093171;28;20039;-81
2022/01/17 10:24:52;;;;;;;38.08;4.88;;;9.50;99.90;;;;;;5092909;28;20096;-81
2022/01/17 10:35:34;;;;;;;28.42;3.67;;;9.30;99.90;;;;;;5091030;28;20044;-80
2022/01/17 10:38:10;;;;;;;34.25;5.03;;;9.40;99.90;;;;;;5074199;28;20052;-81
2022/01/17 10:40:45;;;;;;;37.83;4.75;;;9.40;99.90;;;;;;5056333;28;20118;-81
2022/01/17 10:43:33;;;;;;;30.08;4.55;;;9.40;99.90;;;;;;5074088;28;20135;-81
2022/01/17 10:45:58;;;;;;;33.38;4.32;;;9.50;99.90;;;;;;5074305;28;20098;-81
2022/01/17 10:48:29;;;;;;;32.97;4.57;;;9.60;99.90;;;;;;5074122;28;20040;-81
2022/01/17 10:50:55;;;;;;;33.45;3.97;;;9.80;99.90;;;;;;5073998;28;20033;-81
2022/01/17 10:53:21;;;;;;;35.45;5.43;;;9.80;99.90;;;;;;5073893;28;20055;-81
2022/01/17 10:55:50;;;;;;;31.55;4.32;;;9.60;99.90;;;;;;5074256;28;20044;-81
2022/01/17 10:58:23;;;;;;;33.05;4.30;;;9.60;99.90;;;;;;5055854;28;20063;-80
2022/01/17 11:00:55;;;;;;;27.83;3.28;;;10.20;99.90;;;;;;5055957;28;20074;-82
2022/01/17 11:03:42;;;;;;;35.40;5.55;;;9.40;99.90;;;;;;5039446;28;20041;-80
2022/01/17 11:06:13;;;;;;;29.98;5.13;;;10.10;99.90;;;;;;5039238;28;20457;-80
2022/01/17 11:08:41;;;;;;;44.33;4.68;;;9.90;99.90;;;;;;5073372;28;20131;-81
2022/01/17 11:11:09;;;;;;;42.03;4.80;;;9.70;99.90;;;;;;5073310;28;20055;-82
2022/01/17 11:13:38;;;;;;;38.53;4.80;;;9.50;99.90;;;;;;5073881;28;20047;-80
2022/01/17 11:16:13;;;;;;;35.60;4.45;;;9.80;99.90;;;;;;5073512;28;20044;-81
2022/01/17 11:18:43;;;;;;;36.92;5.07;;;9.70;99.90;;;;;;5073141;28;20516;-81
2022/01/17 11:21:13;;;;;;;42.63;5.93;;;9.70;99.90;;;;;;5073159;28;20094;-81
2022/01/17 11:23:41;;;;;;;30.55;4.88;;;10.40;99.90;;;;;;5073289;28;20044;-80
2022/01/17 11:26:07;;;;;;;36.92;4.65;;;9.80;99.90;;;;;;5073539;28;20048;-80
2022/01/17 11:28:34;;;;;;;45.33;6.00;;;10.30;99.90;;;;;;5073288;28;20044;-81
2022/01/17 11:31:19;;;;;;;40.13;4.82;;;9.80;99.90;;;;;;5073438;28;20393;-80
2022/01/17 11:33:49;;;;;;;36.92;4.88;;;9.70;99.90;;;;;;5073523;28;20059;-81
2022/01/17 11:36:17;;;;;;;39.08;3.80;;;9.80;99.90;;;;;;5072468;28;20133;-83
2022/01/17 11:38:46;;;;;;;35.25;5.45;;;10.30;99.90;;;;;;5073330;28;20056;-82
2022/01/17 11:41:30;;;;;;;42.20;4.85;;;10.40;99.90;;;;;;5072784;28;20101;-81
2022/01/17 11:44:02;;;;;;;46.90;5.85;;;9.80;99.90;;;;;;5055449;28;20049;-83
2022/01/17 11:46:51;;;;;;;35.92;5.82;;;9.80;99.90;;;;;;5073272;28;20433;-84
2022/01/17 11:49:31;;;;;;;36.03;4.93;;;9.80;99.90;;;;;;5073224;28;20033;-84
2022/01/17 11:51:56;;;;;;;32.13;4.72;;;10.30;99.90;;;;;;5072966;28;20060;-83
2022/01/17 11:54:25;;;;;;;38.80;5.82;;;10.20;99.90;;;;;;5073099;28;20033;-84
2022/01/17 11:56:58;;;;;;;36.70;4.50;;;9.70;99.90;;;;;;5073155;28;20397;-84
2022/01/17 11:59:34;;;;;;;33.05;4.07;;;9.90;99.90;;;;;;5072860;28;20504;-83
2022/01/17 12:02:18;;;;;;;40.63;5.65;;;9.80;99.90;;;;;;5072901;28;20041;-83
2022/01/17 12:05:02;;;;;;;38.38;4.47;;;9.80;99.90;;;;;;5072688;28;20049;-83
2022/01/17 12:07:36;;;;;;;50.33;4.95;;;9.90;99.90;;;;;;5054795;28;20057;-83
2022/01/17 12:10:17;;;;;;;40.78;5.68;;;9.80;99.90;;;;;;5073041;28;20101;-83
2022/01/17 12:13:06;;;;;;;32.42;4.35;;;10.20;99.90;;;;;;5072510;28;20040;-83
2022/01/17 12:15:54;;;;;;;36.75;5.30;;;9.80;99.90;;;;;;5072870;28;20049;-83
2022/01/17 12:18:32;;;;;;;40.80;5.60;;;9.50;99.90;;;;;;5054896;28;20048;-83
2022/01/17 12:21:24;;;;;;;31.75;4.28;;;10.10;99.90;;;;;;5072654;28;20102;-83
2022/01/17 12:24:10;;;;;;;38.83;6.45;;;9.40;99.90;;;;;;5072545;28;20081;-83
2022/01/17 12:26:36;;;;;;;41.63;4.70;;;9.60;99.90;;;;;;5072764;28;20370;-82
2022/01/17 12:29:02;;;;;;;31.70;4.47;;;9.20;99.90;;;;;;5054772;28;20052;-83
2022/01/17 12:31:41;;;;;;;34.40;4.60;;;9.70;99.90;;;;;;5072753;28;20056;-83
2022/01/17 12:34:23;;;;;;;23.30;3.55;;;10.10;99.90;;;;;;5072397;28;20405;-83
2022/01/17 12:36:50;;;;;;;39.78;5.72;;;9.50;99.90;;;;;;5072361;28;20060;-82
2022/01/17 12:39:22;;;;;;;44.00;6.32;;;10.00;99.90;;;;;;5054795;28;20454;-84
2022/01/17 12:41:53;;;;;;;33.70;4.53;;;9.50;99.90;;;;;;5072297;28;20481;-83
2022/01/17 12:44:24;;;;;;;37.28;4.78;;;9.80;99.90;;;;;;5072610;28;20051;-83
2022/01/17 12:46:52;;;;;;;37.13;6.45;;;9.80;99.90;;;;;;5072370;28;20402;-83
2022/01/17 12:49:19;;;;;;;36.60;4.95;;;9.80;99.90;;;;;;5058602;28;20554;-83
2022/01/17 12:51:50;;;;;;;26.50;3.65;;;10.20;99.90;;;;;;5076698;28;20047;-82
2022/01/17 12:54:18;;;;;;;29.33;5.50;;;10.20;99.90;;;;;;5076557;28;20040;-83
2022/01/17 12:56:46;;;;;;;23.65;4.55;;;9.40;99.90;;;;;;5076509;28;20059;-83
2022/01/17 12:59:15;;;;;;;36.92;5.25;;;9.90;99.90;;;;;;5058630;28;20445;-83
2022/01/17 13:02:01;;;;;;;25.95;4.72;;;9.50;99.90;;;;;;5076549;28;20044;-82
2022/01/17 13:04:31;;;;;;;38.53;5.25;;;10.20;99.90;;;;;;5076119;28;20044;-84
2022/01/17 13:06:57;;;;;;;42.42;4.55;;;9.70;99.90;;;;;;5076470;28;20050;-83
2022/01/17 13:09:25;;;;;;;38.90;4.55;;;9.80;99.90;;;;;;5058405;28;20052;-83
2022/01/17 13:11:53;;;;;;;36.33;5.78;;;10.50;99.90;;;;;;5075891;28;20090;-83
2022/01/17 13:14:21;;;;;;;33.97;5.13;;;9.80;99.90;;;;;;5076319;28;20063;-83
2022/01/17 13:16:49;;;;;;;28.38;4.20;;;10.60;99.90;;;;;;5058143;28;20053;-83
2022/01/17 13:19:16;;;;;;;40.80;4.90;;;10.20;99.90;;;;;;5074632;28;20076;-81
2022/01/17 13:21:43;;;;;;;35.58;5.90;;;10.30;99.90;;;;;;5074468;28;20098;-82